createdAt,value
2022-09-13T00:02:24.140Z,100520.91
2022-09-13T00:04:50.927Z,100510.19
2022-09-13T00:07:17.601Z,100501.94
2022-09-13T00:09:44.418Z,100516.13
2022-09-13T00:12:11.019Z,100507.13
2022-09-13T00:14:37.655Z,100511.59
2022-09-13T00:17:04.460Z,100502.53
2022-09-13T00:19:31.102Z,100492.13
2022-09-13T00:21:57.746Z,100497.44
2022-09-13T00:24:24.464Z,100488.44
2022-09-13T00:26:51.087Z,100487.66
2022-09-13T00:29:17.715Z,100472.56
2022-09-13T00:31:44.461Z,100469.88
2022-09-13T00:34:11.364Z,100465.06
2022-09-13T00:36:37.992Z,100466.94
2022-09-13T00:39:04.639Z,100466.16
2022-09-13T00:41:31.345Z,100452.91
2022-09-13T00:44:00.507Z,100454.50
2022-09-13T00:46:48.882Z,100452.94
2022-09-13T00:49:37.040Z,100455.78
2022-09-13T00:52:07.204Z,100451.53
2022-09-13T00:54:42.791Z,100448.00
2022-09-13T00:57:10.578Z,100443.63
2022-09-13T00:59:43.819Z,100439.22
2022-09-13T01:02:11.076Z,100429.56
2022-09-13T01:04:38.680Z,100438.41
2022-09-13T01:07:08.769Z,100443.03
2022-09-13T01:09:38.121Z,100434.22
2022-09-13T01:12:35.337Z,100427.25
2022-09-13T01:15:04.283Z,100437.91
2022-09-13T01:17:32.189Z,100433.44
2022-09-13T01:19:59.913Z,100439.69
2022-09-13T01:22:51.484Z,100423.03
2022-09-13T01:25:30.331Z,100420.31
2022-09-13T01:28:30.180Z,100425.75
2022-09-13T01:31:04.629Z,100417.00
2022-09-13T01:33:44.998Z,100405.53
2022-09-13T01:36:32.842Z,100402.13
2022-09-13T01:39:28.058Z,100385.22
2022-09-13T01:42:17.651Z,100388.81
2022-09-13T01:45:03.453Z,100384.38
2022-09-13T01:47:52.996Z,100385.97
2022-09-13T01:50:24.676Z,100385.97
2022-09-13T01:53:18.437Z,100384.00
2022-09-13T01:55:49.026Z,100369.34
2022-09-13T01:58:37.422Z,100368.44
2022-09-13T02:01:08.890Z,100371.78
2022-09-13T02:03:58.763Z,100364.81
2022-09-13T02:06:32.668Z,100368.56
2022-09-13T02:09:09.657Z,100370.47
2022-09-13T02:11:38.255Z,100368.72
2022-09-13T02:14:15.410Z,100360.78
2022-09-13T02:17:04.420Z,100360.91
2022-09-13T02:19:38.427Z,100361.00
2022-09-13T02:22:06.933Z,100360.91
2022-09-13T02:24:36.817Z,100365.16
2022-09-13T02:27:08.506Z,100367.00
2022-09-13T02:29:37.657Z,100367.06
2022-09-13T02:32:09.923Z,100352.94
2022-09-13T02:34:47.432Z,100344.91
2022-09-13T02:37:14.087Z,100336.00
2022-09-13T02:39:48.194Z,100334.91
2022-09-13T02:42:17.303Z,100328.88
2022-09-13T02:44:46.190Z,100323.41
2022-09-13T02:47:50.610Z,100319.75
2022-09-13T02:50:23.374Z,100324.00
2022-09-13T02:52:59.090Z,100318.47
2022-09-13T02:56:14.495Z,100321.16
2022-09-13T02:59:04.469Z,100311.28
2022-09-13T03:01:31.335Z,100312.13
2022-09-13T03:03:58.075Z,100304.06
2022-09-13T03:06:28.606Z,100293.25
2022-09-13T03:08:58.959Z,100297.47
2022-09-13T03:11:51.181Z,100291.25
2022-09-13T03:14:48.148Z,100288.50
2022-09-13T03:18:12.689Z,100275.22
2022-09-13T03:20:57.063Z,100279.53
2022-09-13T03:23:35.021Z,100275.06
2022-09-13T03:26:35.125Z,100267.03
2022-09-13T03:29:13.571Z,100265.16
2022-09-13T03:31:54.224Z,100255.44
2022-09-13T03:34:47.779Z,100244.56
2022-09-13T03:37:21.065Z,100250.78
2022-09-13T03:39:53.885Z,100247.13
2022-09-13T03:42:25.182Z,100245.44
2022-09-13T03:44:53.785Z,100244.19
2022-09-13T03:47:21.646Z,100235.41
2022-09-13T03:49:50.665Z,100229.97
2022-09-13T03:52:17.421Z,100233.34
2022-09-13T03:54:44.043Z,100226.34
2022-09-13T03:57:23.140Z,100230.34
2022-09-13T03:59:58.832Z,100225.53
2022-09-13T04:02:26.096Z,100217.81
2022-09-13T04:04:53.278Z,100211.59
2022-09-13T04:07:21.993Z,100202.78
2022-09-13T04:09:48.953Z,100203.44
2022-09-13T04:12:16.431Z,100207.00
2022-09-13T04:14:46.465Z,100207.56
2022-09-13T04:17:13.991Z,100205.00
2022-09-13T04:19:40.853Z,100202.84
2022-09-13T04:22:07.868Z,100195.16
2022-09-13T04:24:38.878Z,100186.94
2022-09-13T04:27:06.236Z,100186.75
2022-09-13T04:29:33.449Z,100173.78
2022-09-13T04:32:00.279Z,100167.88
2022-09-13T04:34:26.941Z,100167.81
2022-09-13T04:36:53.897Z,100166.88
2022-09-13T04:39:21.360Z,100166.38
2022-09-13T04:41:48.837Z,100173.50
2022-09-13T04:44:16.754Z,100171.50
2022-09-13T04:46:43.802Z,100165.22
2022-09-13T04:49:11.427Z,100156.34
2022-09-13T04:51:38.232Z,100157.28
2022-09-13T04:54:05.511Z,100156.06
2022-09-13T04:56:32.394Z,100149.84
2022-09-13T04:58:59.008Z,100146.13
2022-09-13T05:01:27.847Z,100141.03
2022-09-13T05:03:55.548Z,100144.47
2022-09-13T05:06:22.883Z,100140.78
2022-09-13T05:08:53.047Z,100143.47
2022-09-13T05:11:19.824Z,100141.53
2022-09-13T05:13:54.597Z,100141.28
2022-09-13T05:16:22.850Z,100139.91
2022-09-13T05:18:49.806Z,100134.59
2022-09-13T05:21:16.910Z,100133.47
2022-09-13T05:23:43.651Z,100124.13
2022-09-13T05:26:10.536Z,100133.66
2022-09-13T05:28:37.641Z,100130.94
2022-09-13T05:31:07.362Z,100137.16
2022-09-13T05:33:36.486Z,100132.75
2022-09-13T05:36:07.407Z,100133.66
2022-09-13T05:38:34.125Z,100131.91
2022-09-13T05:41:03.146Z,100135.09
2022-09-13T05:43:31.921Z,100131.50
2022-09-13T05:46:03.563Z,100149.72
2022-09-13T05:48:30.746Z,100159.56
2022-09-13T05:50:58.714Z,100160.41
2022-09-13T05:53:25.674Z,100164.69
2022-09-13T05:55:52.261Z,100158.91
2022-09-13T05:58:18.909Z,100162.56
2022-09-13T06:00:45.731Z,100160.91
2022-09-13T06:03:12.298Z,100156.47
2022-09-13T06:05:38.911Z,100154.31
2022-09-13T06:08:05.525Z,100149.16
2022-09-13T06:10:32.127Z,100149.88
2022-09-13T06:12:58.855Z,100147.38
2022-09-13T06:15:25.631Z,100157.03
2022-09-13T06:17:52.204Z,100149.09
2022-09-13T06:20:19.050Z,100143.94
2022-09-13T06:22:48.010Z,100142.00
2022-09-13T06:25:15.069Z,100138.41
2022-09-13T06:27:41.909Z,100146.22
2022-09-13T06:30:09.033Z,100137.69
2022-09-13T06:32:35.750Z,100142.63
2022-09-13T06:35:02.375Z,100124.00
2022-09-13T06:37:29.050Z,100126.88
2022-09-13T06:39:55.729Z,100123.16
2022-09-13T06:42:22.410Z,100130.56
2022-09-13T06:44:49.035Z,100125.28
2022-09-13T06:47:15.625Z,100130.13
2022-09-13T06:49:42.677Z,100111.84
2022-09-13T06:52:09.279Z,100109.81
2022-09-13T06:54:35.910Z,100108.56
2022-09-13T06:57:03.522Z,100111.59
2022-09-13T06:59:30.422Z,100098.78
2022-09-13T07:01:57.144Z,100099.91
2022-09-13T07:04:23.918Z,100095.19
2022-09-13T07:06:53.193Z,100094.00
2022-09-13T07:09:24.501Z,100093.69
2022-09-13T07:11:54.452Z,100089.38
2022-09-13T07:14:26.511Z,100100.09
2022-09-13T07:16:53.878Z,100096.72
2022-09-13T07:19:22.971Z,100095.00
2022-09-13T07:21:50.107Z,100094.56
2022-09-13T07:24:17.501Z,100095.13
2022-09-13T07:26:44.163Z,100089.75
2022-09-13T07:29:14.920Z,100098.28
2022-09-13T07:31:43.745Z,100091.75
2022-09-13T07:34:19.063Z,100084.66
2022-09-13T07:36:46.925Z,100090.78
2022-09-13T07:39:17.243Z,100098.09
2022-09-13T07:41:46.821Z,100089.09
2022-09-13T07:44:13.638Z,100082.34
2022-09-13T07:46:41.694Z,100079.69
2022-09-13T07:49:09.808Z,100088.16
2022-09-13T07:51:39.526Z,100093.22
2022-09-13T07:54:11.973Z,100089.97
2022-09-13T07:56:40.090Z,100106.34
2022-09-13T07:59:11.419Z,100105.00
2022-09-13T08:01:45.973Z,100101.09
2022-09-13T08:04:14.983Z,100088.47
2022-09-13T08:06:44.684Z,100087.59
2022-09-13T08:09:11.757Z,100088.72
2022-09-13T08:11:43.875Z,100091.50
2022-09-13T08:14:12.834Z,100093.78
2022-09-13T08:16:39.972Z,100089.06
2022-09-13T08:19:07.774Z,100091.41
2022-09-13T08:21:38.675Z,100090.78
2022-09-13T08:24:07.205Z,100094.59
2022-09-13T08:26:34.598Z,100106.19
2022-09-13T08:29:03.895Z,100114.66
2022-09-13T08:31:30.997Z,100119.28
2022-09-13T08:33:58.169Z,100119.81
2022-09-13T08:36:26.320Z,100127.53
2022-09-13T08:38:59.076Z,100121.16
2022-09-13T08:41:47.998Z,100113.47
2022-09-13T08:44:28.652Z,100118.41
2022-09-13T08:47:09.630Z,100104.63
2022-09-13T08:49:41.576Z,100109.66
2022-09-13T08:52:20.368Z,100088.03
2022-09-13T08:54:47.051Z,100095.56
2022-09-13T08:57:19.625Z,100084.59
2022-09-13T09:00:04.799Z,100091.84
2022-09-13T09:02:54.313Z,100088.47
2022-09-13T09:05:23.787Z,100095.75
2022-09-13T09:07:53.948Z,100113.81
2022-09-13T09:10:24.546Z,100101.19
2022-09-13T09:12:58.278Z,100109.72
2022-09-13T09:15:26.310Z,100107.94
2022-09-13T09:17:59.961Z,100103.94
2022-09-13T09:20:32.927Z,100088.00
2022-09-13T09:23:21.763Z,100102.22
2022-09-13T09:25:51.902Z,100100.28
2022-09-13T09:28:19.502Z,100092.53
2022-09-13T09:31:07.095Z,100096.81
2022-09-13T09:33:48.427Z,100096.50
2022-09-13T09:36:49.062Z,100086.50
2022-09-13T09:39:16.526Z,100070.75
2022-09-13T09:41:44.433Z,100063.09
2022-09-13T09:44:22.238Z,100057.69
2022-09-13T09:47:02.998Z,100065.16
2022-09-13T09:49:52.342Z,100071.97
2022-09-13T09:52:22.474Z,100064.28
2022-09-13T09:54:50.393Z,100062.56
2022-09-13T09:57:20.592Z,100075.69
2022-09-13T09:59:47.585Z,100076.69
2022-09-13T10:02:20.483Z,100083.16
2022-09-13T10:04:55.952Z,100083.28
2022-09-13T10:07:32.363Z,100076.50
2022-09-13T10:10:21.815Z,100072.97
2022-09-13T10:12:52.048Z,100066.03
2022-09-13T10:15:20.626Z,100063.47
2022-09-13T10:18:43.071Z,100071.09
2022-09-13T10:21:06.619Z,100065.78
2022-09-13T10:23:34.980Z,100063.75
2022-09-13T10:26:10.550Z,100061.19
2022-09-13T10:28:45.133Z,100063.56
2022-09-13T10:31:17.289Z,100052.59
2022-09-13T10:34:01.045Z,100052.03
2022-09-13T10:36:51.784Z,100057.66
2022-09-13T10:39:21.652Z,100057.19
2022-09-13T10:42:01.158Z,100062.25
2022-09-13T10:44:40.949Z,100053.94
2022-09-13T10:47:28.272Z,100045.31
2022-09-13T10:49:57.020Z,100039.50
2022-09-13T10:52:28.109Z,100042.09
2022-09-13T10:54:55.763Z,100046.19
2022-09-13T10:57:37.737Z,100041.41
2022-09-13T11:00:10.769Z,100034.34
2022-09-13T11:02:56.461Z,100028.44
2022-09-13T11:05:34.864Z,100026.22
2022-09-13T11:08:21.150Z,100032.63
2022-09-13T11:11:11.945Z,100031.97
2022-09-13T11:13:45.035Z,100032.34
2022-09-13T11:16:29.973Z,100035.00
2022-09-13T11:19:27.752Z,100033.78
2022-09-13T11:22:22.127Z,100049.75
2022-09-13T11:25:02.957Z,100046.50
2022-09-13T11:27:54.469Z,100049.75
2022-09-13T11:30:27.781Z,100048.69
2022-09-13T11:33:24.284Z,100052.78
2022-09-13T11:36:09.951Z,100059.34
2022-09-13T11:39:03.476Z,100054.66
2022-09-13T11:41:43.482Z,100053.78
2022-09-13T11:44:26.566Z,100058.25
2022-09-13T11:47:18.731Z,100059.53
2022-09-13T11:50:18.536Z,100063.09
2022-09-13T11:52:57.438Z,100059.38
2022-09-13T11:55:29.446Z,100054.50
2022-09-13T11:57:58.656Z,100053.16
2022-09-13T12:00:43.211Z,100053.31
2022-09-13T12:03:36.711Z,100043.81
2022-09-13T12:06:12.545Z,100036.72
2022-09-13T12:08:48.314Z,100031.53
2022-09-13T12:11:23.195Z,100037.28
2022-09-13T12:13:53.243Z,100045.41
2022-09-13T12:16:45.912Z,100041.53
2022-09-13T12:19:43.397Z,100031.97
2022-09-13T12:22:10.912Z,100036.94
2022-09-13T12:24:42.628Z,100028.03
2022-09-13T12:27:15.430Z,100027.88
2022-09-13T12:30:09.223Z,100034.34
2022-09-13T12:32:38.675Z,100036.53
2022-09-13T12:35:27.138Z,100029.06
2022-09-13T12:38:04.279Z,100036.28
2022-09-13T12:41:08.273Z,100023.75
2022-09-13T12:43:56.772Z,100012.31
2022-09-13T12:46:37.115Z,100009.00
2022-09-13T12:49:38.802Z,99999.41
2022-09-13T12:52:17.864Z,99992.19
2022-09-13T12:55:29.176Z,99996.91
2022-09-13T12:58:34.300Z,99986.84
2022-09-13T13:01:11.487Z,99985.66
2022-09-13T13:03:50.586Z,99991.31
2022-09-13T13:06:32.930Z,99995.41
2022-09-13T13:09:04.070Z,99989.38
2022-09-13T13:11:42.438Z,99985.34
2022-09-13T13:14:46.206Z,99977.41
2022-09-13T13:17:47.223Z,99982.56
2022-09-13T13:20:39.817Z,99978.03
2022-09-13T13:23:29.974Z,99975.13
2022-09-13T13:26:08.083Z,99985.06
2022-09-13T13:28:52.014Z,99975.19
2022-09-13T13:31:24.895Z,99972.75
2022-09-13T13:33:58.508Z,99971.09
2022-09-13T13:36:26.456Z,99965.59
2022-09-13T13:38:53.717Z,99958.81
2022-09-13T13:41:38.701Z,99968.25
2022-09-13T13:44:23.737Z,99953.03
2022-09-13T13:47:14.684Z,99942.97
2022-09-13T13:49:41.249Z,99948.59
2022-09-13T13:52:07.960Z,99951.03
2022-09-13T13:54:49.772Z,99949.16
2022-09-13T13:57:35.551Z,99946.47
2022-09-13T14:00:23.611Z,99944.75
2022-09-13T14:02:50.125Z,99940.84
2022-09-13T14:05:54.674Z,99939.03
2022-09-13T14:08:42.665Z,99950.22
2022-09-13T14:11:15.845Z,99947.56
2022-09-13T14:14:01.181Z,99949.50
2022-09-13T14:17:17.323Z,99939.13
2022-09-13T14:19:49.694Z,99937.81
2022-09-13T14:22:26.809Z,99935.47
2022-09-13T14:24:58.484Z,99929.25
2022-09-13T14:27:27.679Z,99932.56
2022-09-13T14:29:56.700Z,99936.34
2022-09-13T14:32:26.888Z,99935.22
2022-09-13T14:35:01.385Z,99924.56
2022-09-13T14:37:36.430Z,99917.78
2022-09-13T14:40:24.031Z,99927.06
2022-09-13T14:42:56.004Z,99925.44
2022-09-13T14:45:36.028Z,99922.59
2022-09-13T14:48:11.513Z,99911.97
2022-09-13T14:50:55.616Z,99917.34
2022-09-13T14:53:24.738Z,99918.31
2022-09-13T14:56:33.809Z,99919.16
2022-09-13T14:59:02.967Z,99913.38
2022-09-13T15:01:35.051Z,99915.72
2022-09-13T15:04:06.649Z,99913.41
2022-09-13T15:06:41.163Z,99911.47
2022-09-13T15:09:29.874Z,99912.06
2022-09-13T15:12:01.712Z,99913.34
2022-09-13T15:14:38.162Z,99907.34
2022-09-13T15:17:14.124Z,99916.88
2022-09-13T15:19:42.740Z,99912.97
2022-09-13T15:22:20.237Z,99899.88
2022-09-13T15:24:49.707Z,99902.34
2022-09-13T15:27:20.974Z,99899.75
2022-09-13T15:29:53.155Z,99900.59
2022-09-13T15:32:33.523Z,99903.84
2022-09-13T15:35:01.167Z,99906.84
2022-09-13T15:37:34.205Z,99903.13
2022-09-13T15:40:18.701Z,99894.63
2022-09-13T15:42:52.730Z,99891.78
2022-09-13T15:45:20.846Z,99882.81
2022-09-13T15:47:49.125Z,99888.59
2022-09-13T15:50:21.681Z,99890.00
2022-09-13T15:52:48.300Z,99888.19
2022-09-13T15:55:15.036Z,99883.25
2022-09-13T15:57:43.999Z,99883.78
2022-09-13T16:00:16.012Z,99889.44
2022-09-13T16:02:42.785Z,99886.88
2022-09-13T16:05:10.276Z,99887.94
2022-09-13T16:07:37.066Z,99890.84
2022-09-13T16:10:04.571Z,99894.47
2022-09-13T16:12:31.251Z,99891.28
2022-09-13T16:14:58.441Z,99892.25
2022-09-13T16:17:27.075Z,99898.47
2022-09-13T16:19:54.339Z,99902.94
2022-09-13T16:22:21.533Z,99909.03
2022-09-13T16:24:51.618Z,99908.94
2022-09-13T16:27:19.335Z,99908.00
2022-09-13T16:29:46.272Z,99902.81
2022-09-13T16:32:13.041Z,99902.88
2022-09-13T16:34:39.652Z,99904.09
2022-09-13T16:37:06.521Z,99905.66
2022-09-13T16:39:33.121Z,99908.25
2022-09-13T16:41:59.745Z,99904.81
2022-09-13T16:44:26.466Z,99898.47
2022-09-13T16:46:53.255Z,99899.53
2022-09-13T16:49:19.893Z,99902.06
2022-09-13T16:51:48.134Z,99907.06
2022-09-13T16:54:14.747Z,99910.50
2022-09-13T16:56:41.443Z,99918.09
2022-09-13T16:59:08.143Z,99920.03
2022-09-13T17:01:34.838Z,99926.94
2022-09-13T17:04:01.875Z,99926.09
2022-09-13T17:06:28.675Z,99927.53
2022-09-13T17:09:01.582Z,99918.94
2022-09-13T17:11:30.715Z,99926.19
2022-09-13T17:13:59.404Z,99929.75
2022-09-13T17:16:32.898Z,99923.63
2022-09-13T17:19:01.717Z,99918.38
2022-09-13T17:21:33.192Z,99926.84
2022-09-13T17:24:00.394Z,99922.19
2022-09-13T17:26:27.003Z,99923.78
2022-09-13T17:28:53.602Z,99923.06
2022-09-13T17:31:20.654Z,99918.56
2022-09-13T17:33:47.330Z,99921.06
2022-09-13T17:36:14.551Z,99925.22
2022-09-13T17:38:41.784Z,99927.56
2022-09-13T17:41:13.566Z,99924.47
2022-09-13T17:43:42.484Z,99921.50
2022-09-13T17:46:14.444Z,99928.06
2022-09-13T17:48:41.580Z,99939.84
2022-09-13T17:51:13.485Z,99934.38
2022-09-13T17:53:42.017Z,99935.97
2022-09-13T17:56:08.644Z,99931.41
2022-09-13T17:58:35.574Z,99937.16
2022-09-13T18:01:04.035Z,99936.03
2022-09-13T18:03:31.746Z,99938.09
2022-09-13T18:05:59.794Z,99940.84
2022-09-13T18:08:27.841Z,99938.53
2022-09-13T18:11:12.278Z,99938.00
2022-09-13T18:13:40.066Z,99935.56
2022-09-13T18:16:16.098Z,99941.72
2022-09-13T18:18:47.416Z,99945.72
2022-09-13T18:21:14.692Z,99954.78
2022-09-13T18:23:41.584Z,99956.13
2022-09-13T18:26:11.314Z,99957.38
2022-09-13T18:28:38.203Z,99951.38
2022-09-13T18:31:07.073Z,99952.44
2022-09-13T18:33:33.860Z,99944.94
2022-09-13T18:36:02.742Z,99956.75
2022-09-13T18:38:32.936Z,99969.56
2022-09-13T18:41:00.276Z,99959.56
2022-09-13T18:43:27.028Z,99948.63
2022-09-13T18:45:58.139Z,99965.03
2022-09-13T18:48:24.948Z,99969.94
2022-09-13T18:50:51.617Z,99970.09
2022-09-13T18:53:18.554Z,99963.44
2022-09-13T18:55:45.409Z,99967.09
2022-09-13T18:58:13.642Z,99971.94
2022-09-13T19:00:40.757Z,99971.50
2022-09-13T19:03:12.690Z,99974.28
2022-09-13T19:05:39.761Z,99973.72
2022-09-13T19:08:10.490Z,99974.53
2022-09-13T19:10:38.012Z,99974.13
2022-09-13T19:13:04.909Z,99982.41
2022-09-13T19:15:32.059Z,99980.72
2022-09-13T19:17:59.208Z,99977.44
2022-09-13T19:20:26.030Z,99982.03
2022-09-13T19:22:52.811Z,99980.38
2022-09-13T19:25:19.552Z,99973.50
2022-09-13T19:27:46.126Z,99974.28
2022-09-13T19:30:13.410Z,99979.44
2022-09-13T19:32:40.409Z,99979.28
2022-09-13T19:35:07.367Z,99979.19
2022-09-13T19:37:33.948Z,99970.78
2022-09-13T19:40:00.639Z,99983.44
2022-09-13T19:42:27.461Z,99978.84
2022-09-13T19:44:54.164Z,99984.72
2022-09-13T19:50:08.613Z,99990.78
2022-09-13T19:52:35.232Z,99989.03
2022-09-13T19:55:01.918Z,99990.25
2022-09-13T19:57:28.613Z,99989.38
2022-09-13T19:59:55.331Z,99992.41
2022-09-13T20:02:22.136Z,99985.69
2022-09-13T20:04:49.306Z,99989.94
2022-09-13T20:07:16.167Z,99992.75
2022-09-13T20:09:47.201Z,99989.34
2022-09-13T20:12:14.298Z,99995.97
2022-09-13T20:14:43.666Z,99993.66
2022-09-13T20:17:10.328Z,99994.38
2022-09-13T20:19:41.790Z,99995.72
2022-09-13T20:22:10.578Z,99995.53
2022-09-13T20:24:37.235Z,99997.09
2022-09-13T20:27:03.965Z,99996.78
2022-09-13T20:29:31.575Z,100000.13
2022-09-13T20:31:59.693Z,99986.16
2022-09-13T20:34:27.238Z,99992.16
2022-09-13T20:36:54.383Z,99990.69
2022-09-13T20:39:20.969Z,99993.69
2022-09-13T20:41:49.373Z,99992.09
2022-09-13T20:44:16.416Z,99996.78
2022-09-13T20:46:43.489Z,99988.50
2022-09-13T20:49:10.348Z,99990.41
2022-09-13T20:51:37.615Z,99992.13
2022-09-13T20:54:05.324Z,99988.75
2022-09-13T20:56:36.226Z,99991.50
2022-09-13T20:59:03.822Z,99988.13
2022-09-13T21:01:32.640Z,99990.16
2022-09-13T21:04:02.799Z,99980.41
2022-09-13T21:06:31.705Z,99981.63
2022-09-13T21:09:00.109Z,99983.19
2022-09-13T21:11:36.693Z,99979.84
2022-09-13T21:14:08.545Z,99987.16
2022-09-13T21:16:39.054Z,99992.72
2022-09-13T21:19:06.210Z,99991.09
2022-09-13T21:21:34.820Z,99987.22
2022-09-13T21:24:04.326Z,99982.34
2022-09-13T21:26:31.645Z,99986.03
2022-09-13T21:28:58.903Z,99988.72
2022-09-13T21:31:30.441Z,99982.81
2022-09-13T21:34:02.678Z,99981.97
2022-09-13T21:36:30.640Z,99987.44
2022-09-13T21:38:57.584Z,99986.72
2022-09-13T21:41:25.979Z,99985.78
2022-09-13T21:43:53.752Z,99983.81
2022-09-13T21:46:22.946Z,99987.03
2022-09-13T21:48:51.974Z,99981.00
2022-09-13T21:51:18.527Z,99980.28
2022-09-13T21:53:46.519Z,99984.94
2022-09-13T21:56:17.823Z,99982.34
2022-09-13T21:59:04.991Z,99983.59
2022-09-13T22:01:34.131Z,99985.38
2022-09-13T22:04:01.419Z,99985.69
2022-09-13T22:06:33.133Z,99983.25
2022-09-13T22:09:01.722Z,99967.44
2022-09-13T22:11:30.649Z,99975.16
2022-09-13T22:13:58.023Z,99981.66
2022-09-13T22:16:28.930Z,99979.25
2022-09-13T22:18:59.102Z,99971.50
2022-09-13T22:21:30.922Z,99972.38
2022-09-13T22:24:01.011Z,99968.16
2022-09-13T22:26:29.557Z,99973.50
2022-09-13T22:28:58.337Z,99981.47
2022-09-13T22:31:28.063Z,99968.38
2022-09-13T22:33:56.451Z,99972.81
2022-09-13T22:36:23.750Z,99979.81
2022-09-13T22:38:54.758Z,99973.44
2022-09-13T22:41:27.731Z,99987.72
2022-09-13T22:43:55.034Z,99978.31
2022-09-13T22:46:23.988Z,99980.25
2022-09-13T22:48:50.858Z,99970.59
2022-09-13T22:51:18.454Z,99972.31
2022-09-13T22:53:46.832Z,99976.00
2022-09-13T22:56:25.500Z,99969.78
2022-09-13T22:59:00.638Z,99977.53
2022-09-13T23:01:28.794Z,99976.88
2022-09-13T23:03:56.438Z,99969.22
2022-09-13T23:06:24.910Z,99966.72
2022-09-13T23:08:53.002Z,99966.31
2022-09-13T23:11:31.070Z,99960.03
2022-09-13T23:14:02.797Z,99964.50
2022-09-13T23:16:32.908Z,99959.41
2022-09-13T23:19:03.003Z,99958.91
2022-09-13T23:21:32.765Z,99962.63
2022-09-13T23:24:00.874Z,99967.19
2022-09-13T23:26:29.146Z,99964.53
2022-09-13T23:29:00.401Z,99963.44
2022-09-13T23:31:30.013Z,99958.41
2022-09-13T23:33:59.733Z,99966.31
2022-09-13T23:36:29.229Z,99967.19
2022-09-13T23:38:57.419Z,99962.00
2022-09-13T23:41:25.864Z,99960.41
2022-09-13T23:43:53.367Z,99962.97
2022-09-13T23:46:20.303Z,99967.28
2022-09-13T23:48:47.009Z,99961.22
2022-09-13T23:51:19.656Z,99962.00
2022-09-13T23:53:46.652Z,99968.22
2022-09-13T23:56:14.050Z,99967.13
2022-09-13T23:58:40.757Z,99968.91
